createdAt,value
2022-09-12T00:01:56.416Z,3.63
2022-09-12T00:04:58.396Z,3.50
2022-09-12T00:08:02.274Z,3.42
2022-09-12T00:11:07.024Z,3.90
2022-09-12T00:14:11.421Z,3.47
2022-09-12T00:17:13.546Z,3.97
2022-09-12T00:20:15.446Z,3.72
2022-09-12T00:23:18.124Z,3.47
2022-09-12T00:26:21.216Z,3.35
2022-09-12T00:29:24.174Z,4.28
2022-09-12T00:32:26.574Z,3.45
2022-09-12T00:35:28.878Z,3.47
2022-09-12T00:38:31.245Z,3.97
2022-09-12T00:41:37.545Z,3.78
2022-09-12T00:44:39.454Z,3.53
2022-09-12T00:47:42.161Z,3.95
2022-09-12T00:50:45.156Z,3.63
2022-09-12T00:53:49.225Z,3.28
2022-09-12T00:56:53.999Z,4.10
2022-09-12T01:00:00.227Z,3.75
2022-09-12T01:03:05.589Z,3.77
2022-09-12T01:06:21.662Z,4.15
2022-09-12T01:09:24.546Z,3.78
2022-09-12T01:12:27.353Z,4.38
2022-09-12T01:15:30.114Z,3.85
2022-09-12T01:18:50.739Z,4.13
2022-09-12T01:22:20.551Z,4.07
2022-09-12T01:25:32.375Z,3.22
2022-09-12T01:28:40.455Z,3.70
2022-09-12T01:32:02.492Z,4.45
2022-09-12T01:35:23.205Z,3.70
2022-09-12T01:38:38.214Z,3.85
2022-09-12T01:42:03.386Z,4.10
2022-09-12T01:45:10.652Z,4.25
2022-09-12T01:48:21.450Z,4.63
2022-09-12T01:51:26.455Z,4.30
2022-09-12T01:54:43.833Z,4.05
2022-09-12T01:57:59.221Z,4.03
2022-09-12T02:01:09.843Z,3.92
2022-09-12T02:04:21.864Z,3.80
2022-09-12T02:07:30.634Z,3.70
2022-09-12T02:10:42.638Z,3.78
2022-09-12T02:13:57.803Z,3.92
2022-09-12T02:17:06.287Z,4.07
2022-09-12T02:20:47.556Z,4.97
2022-09-12T02:23:55.576Z,4.03
2022-09-12T02:27:01.079Z,4.43
2022-09-12T02:30:03.128Z,4.15
2022-09-12T02:33:35.399Z,3.63
2022-09-12T02:37:13.629Z,3.72
2022-09-12T02:40:16.214Z,4.18
2022-09-12T02:43:18.475Z,4.20
2022-09-12T02:46:34.778Z,4.13
2022-09-12T02:49:37.392Z,3.78
2022-09-12T02:52:42.925Z,4.47
2022-09-12T02:55:47.395Z,4.07
2022-09-12T02:58:49.642Z,4.47
2022-09-12T03:02:00.828Z,4.72
2022-09-12T03:05:15.138Z,4.57
2022-09-12T03:08:36.006Z,4.55
2022-09-12T03:12:01.431Z,4.20
2022-09-12T03:15:11.189Z,4.15
2022-09-12T03:18:49.017Z,4.15
2022-09-12T03:22:20.070Z,3.67
2022-09-12T03:25:28.176Z,4.38
2022-09-12T03:28:31.673Z,4.10
2022-09-12T03:31:34.225Z,3.88
2022-09-12T03:34:35.994Z,4.53
2022-09-12T03:37:45.704Z,3.92
2022-09-12T03:40:51.365Z,3.95
2022-09-12T03:43:57.063Z,3.65
2022-09-12T03:47:01.647Z,2.88
2022-09-12T03:50:04.990Z,2.85
2022-09-12T03:53:16.550Z,2.65
2022-09-12T03:56:21.107Z,2.28
2022-09-12T03:59:23.074Z,2.30
2022-09-12T04:02:26.023Z,2.35
2022-09-12T04:05:30.461Z,2.63
2022-09-12T04:08:32.626Z,2.40
2022-09-12T04:11:37.250Z,2.75
2022-09-12T04:14:40.307Z,2.63
2022-09-12T04:17:42.612Z,2.22
2022-09-12T04:20:44.721Z,2.67
2022-09-12T04:23:48.181Z,2.92
2022-09-12T04:26:50.516Z,3.17
2022-09-12T04:29:54.336Z,2.88
2022-09-12T04:32:56.862Z,2.90
2022-09-12T04:36:07.243Z,3.00
2022-09-12T04:39:10.173Z,2.85
2022-09-12T04:42:16.904Z,2.75
2022-09-12T04:45:19.476Z,3.15
2022-09-12T04:48:22.310Z,2.78
2022-09-12T04:51:40.418Z,2.53
2022-09-12T04:54:45.866Z,2.60
2022-09-12T04:57:48.223Z,2.45
2022-09-12T05:00:53.224Z,2.30
2022-09-12T05:03:56.948Z,2.30
2022-09-12T05:07:00.788Z,2.65
2022-09-12T05:10:04.583Z,2.55
2022-09-12T05:13:07.517Z,2.60
2022-09-12T05:16:12.242Z,2.47
2022-09-12T05:19:15.153Z,2.70
2022-09-12T05:22:17.146Z,2.75
2022-09-12T05:25:19.006Z,2.55
2022-09-12T05:28:22.462Z,2.17
2022-09-12T05:31:26.320Z,3.15
2022-09-12T05:34:28.114Z,2.67
2022-09-12T05:37:31.584Z,3.08
2022-09-12T05:40:34.378Z,2.50
2022-09-12T05:43:44.557Z,2.80
2022-09-12T05:46:54.281Z,2.92
2022-09-12T05:49:59.888Z,3.05
2022-09-12T05:53:02.647Z,3.10
2022-09-12T05:56:08.843Z,3.35
2022-09-12T05:59:19.668Z,3.37
2022-09-12T06:02:22.239Z,2.97
2022-09-12T06:05:25.410Z,3.05
2022-09-12T06:08:28.176Z,3.60
2022-09-12T06:11:33.619Z,3.42
2022-09-12T06:14:36.435Z,3.38
2022-09-12T06:17:42.896Z,3.60
2022-09-12T06:20:44.854Z,3.25
2022-09-12T06:23:48.918Z,3.58
2022-09-12T06:26:52.965Z,3.65
2022-09-12T06:29:57.553Z,3.28
2022-09-12T06:32:59.862Z,3.20
2022-09-12T06:36:12.029Z,3.05
2022-09-12T06:39:20.494Z,2.90
2022-09-12T06:42:33.071Z,2.92
2022-09-12T06:45:35.134Z,3.03
2022-09-12T06:48:41.796Z,3.50
2022-09-12T06:54:47.641Z,2.10
2022-09-12T06:57:49.677Z,2.22
2022-09-12T07:00:57.211Z,2.63
2022-09-12T07:04:03.697Z,3.05
2022-09-12T07:07:05.987Z,2.15
2022-09-12T07:10:08.642Z,1.92
2022-09-12T07:13:14.033Z,2.55
2022-09-12T07:16:19.727Z,3.30
2022-09-12T07:19:25.166Z,3.05
2022-09-12T07:22:28.000Z,2.85
2022-09-12T07:25:29.975Z,2.20
2022-09-12T07:28:34.099Z,2.35
2022-09-12T07:31:37.000Z,2.10
2022-09-12T07:34:38.945Z,1.55
2022-09-12T07:37:41.899Z,2.25
2022-09-12T07:40:44.092Z,2.13
2022-09-12T07:43:46.807Z,2.10
2022-09-12T07:46:48.969Z,2.17
2022-09-12T07:49:50.891Z,1.55
2022-09-12T07:52:56.077Z,1.80
2022-09-12T07:55:58.078Z,1.60
2022-09-12T07:59:02.980Z,1.52
2022-09-12T08:02:05.648Z,1.50
2022-09-12T08:05:08.924Z,1.38
2022-09-12T08:08:11.563Z,1.90
2022-09-12T08:11:30.517Z,1.67
2022-09-12T08:14:33.206Z,1.42
2022-09-12T08:17:35.518Z,1.40
2022-09-12T08:20:38.156Z,1.58
2022-09-12T08:23:40.281Z,1.77
2022-09-12T08:26:43.685Z,1.63
2022-09-12T08:29:45.476Z,1.70
2022-09-12T08:32:47.710Z,1.45
2022-09-12T08:35:50.209Z,1.40
2022-09-12T08:38:59.967Z,1.85
2022-09-12T08:42:05.034Z,1.67
2022-09-12T08:45:43.716Z,1.60
2022-09-12T08:48:47.515Z,1.88
2022-09-12T08:51:51.375Z,1.95
2022-09-12T08:54:55.308Z,1.48
2022-09-12T08:58:00.887Z,1.60
2022-09-12T09:01:12.757Z,1.73
2022-09-12T09:04:36.604Z,1.90
2022-09-12T09:08:22.212Z,1.30
2022-09-12T09:11:42.223Z,1.65
2022-09-12T09:15:10.466Z,1.50
2022-09-12T09:18:24.555Z,1.63
2022-09-12T09:21:31.834Z,1.52
2022-09-12T09:24:39.328Z,1.88
2022-09-12T09:27:52.441Z,1.73
2022-09-12T09:30:54.894Z,1.80
2022-09-12T09:34:00.731Z,1.20
2022-09-12T09:37:06.596Z,1.47
2022-09-12T09:40:24.843Z,1.80
2022-09-12T09:43:30.521Z,1.70
2022-09-12T09:46:33.919Z,1.48
2022-09-12T09:49:36.532Z,1.58
2022-09-12T09:52:39.727Z,1.70
2022-09-12T09:55:44.729Z,1.48
2022-09-12T09:58:47.565Z,1.45
2022-09-12T10:01:53.034Z,1.20
2022-09-12T10:04:57.721Z,1.00
2022-09-12T10:08:09.927Z,0.98
2022-09-12T10:11:28.991Z,1.00
2022-09-12T10:14:35.790Z,1.15
2022-09-12T10:17:44.220Z,1.05
2022-09-12T10:20:46.524Z,0.90
2022-09-12T10:24:00.274Z,0.98
2022-09-12T10:27:14.483Z,1.00
2022-09-12T10:30:19.975Z,1.25
2022-09-12T10:33:24.871Z,1.27
2022-09-12T10:36:39.797Z,1.10
2022-09-12T10:39:41.854Z,0.90
2022-09-12T10:42:51.123Z,0.93
2022-09-12T10:45:58.230Z,1.20
2022-09-12T10:49:13.964Z,1.02
2022-09-12T10:52:24.259Z,0.88
2022-09-12T10:55:32.543Z,1.00
2022-09-12T10:59:07.149Z,0.85
2022-09-12T11:02:20.461Z,0.93
2022-09-12T11:05:26.394Z,0.90
2022-09-12T11:08:28.643Z,0.93
2022-09-12T11:11:42.747Z,0.70
2022-09-12T11:15:11.232Z,1.20
2022-09-12T11:18:30.285Z,1.38
2022-09-12T11:21:32.131Z,0.80
2022-09-12T11:24:40.266Z,0.80
2022-09-12T11:28:00.748Z,0.57
2022-09-12T11:31:18.967Z,0.60
2022-09-12T11:34:55.360Z,1.10
2022-09-12T11:38:07.664Z,0.85
2022-09-12T11:41:31.512Z,0.70
2022-09-12T11:44:40.469Z,0.82
2022-09-12T11:47:49.131Z,0.63
2022-09-12T11:50:52.484Z,1.00
2022-09-12T11:54:30.686Z,0.73
2022-09-12T11:57:54.804Z,1.00
2022-09-12T12:01:03.736Z,0.93
2022-09-12T12:04:13.544Z,0.63
2022-09-12T12:07:19.655Z,0.90
2022-09-12T12:10:43.890Z,0.87
2022-09-12T12:13:53.776Z,1.00
2022-09-12T12:16:55.808Z,1.15
2022-09-12T12:20:07.458Z,1.13
2022-09-12T12:23:30.937Z,0.93
2022-09-12T12:26:42.975Z,0.75
2022-09-12T12:29:45.608Z,0.80
2022-09-12T12:32:47.787Z,0.80
2022-09-12T12:36:09.403Z,0.70
2022-09-12T12:39:51.312Z,0.70
2022-09-12T12:42:59.515Z,1.00
2022-09-12T12:46:05.574Z,0.80
2022-09-12T12:49:27.120Z,0.93
2022-09-12T12:52:31.574Z,0.80
2022-09-12T12:55:42.856Z,0.80
2022-09-12T12:58:46.607Z,1.10
2022-09-12T13:01:55.413Z,1.00
2022-09-12T13:04:59.849Z,0.93
2022-09-12T13:08:08.492Z,1.40
2022-09-12T13:11:30.642Z,1.38
2022-09-12T13:14:55.813Z,1.08
2022-09-12T13:18:33.421Z,1.00
2022-09-12T13:21:35.364Z,0.90
2022-09-12T13:24:45.474Z,0.98
2022-09-12T13:28:13.121Z,0.68
2022-09-12T13:31:15.518Z,0.80
2022-09-12T13:34:25.591Z,0.70
2022-09-12T13:37:39.287Z,0.82
2022-09-12T13:40:57.033Z,0.98
2022-09-12T13:47:02.238Z,0.70
2022-09-12T13:50:06.371Z,0.63
2022-09-12T13:53:14.430Z,0.80
2022-09-12T13:56:21.113Z,0.80
2022-09-12T14:02:29.526Z,0.98
2022-09-12T14:05:38.373Z,0.93
2022-09-12T14:08:43.519Z,0.82
2022-09-12T14:11:46.509Z,0.70
2022-09-12T14:14:50.516Z,0.60
2022-09-12T14:17:55.143Z,0.80
2022-09-12T14:21:02.878Z,0.70
2022-09-12T14:24:07.291Z,0.70
2022-09-12T14:27:10.496Z,0.52
2022-09-12T14:30:27.852Z,0.77
2022-09-12T14:33:49.127Z,0.65
2022-09-12T14:36:53.180Z,0.70
2022-09-12T14:39:55.275Z,0.60
2022-09-12T14:43:01.200Z,0.60
2022-09-12T14:46:22.140Z,0.70
2022-09-12T14:49:32.061Z,0.60
2022-09-12T14:52:35.288Z,0.50
2022-09-12T14:55:45.105Z,0.95
2022-09-12T14:58:47.498Z,0.80
2022-09-12T15:01:49.669Z,0.80
2022-09-12T15:04:54.649Z,0.55
2022-09-12T15:08:03.432Z,0.80
2022-09-12T15:11:07.094Z,0.60
2022-09-12T15:14:15.662Z,0.60
2022-09-12T15:17:17.839Z,0.65
2022-09-12T15:20:20.434Z,0.60
2022-09-12T15:23:35.762Z,0.70
2022-09-12T15:26:38.283Z,0.80
2022-09-12T15:29:40.730Z,0.70
2022-09-12T15:32:43.979Z,0.60
2022-09-12T15:35:47.090Z,0.70
2022-09-12T15:38:50.196Z,0.63
2022-09-12T15:41:52.575Z,0.63
2022-09-12T15:44:59.415Z,0.75
2022-09-12T15:48:04.505Z,0.70
2022-09-12T15:51:15.264Z,0.77
2022-09-12T15:54:18.610Z,0.55
2022-09-12T15:57:21.465Z,0.57
2022-09-12T16:00:24.131Z,0.73
2022-09-12T16:03:28.361Z,0.60
2022-09-12T16:06:36.785Z,0.80
2022-09-12T16:09:39.830Z,0.60
2022-09-12T16:12:44.278Z,0.57
2022-09-12T16:15:47.691Z,0.93
2022-09-12T16:18:49.891Z,0.70
2022-09-12T16:21:51.735Z,0.60
2022-09-12T16:24:54.533Z,0.60
2022-09-12T16:27:57.036Z,0.82
2022-09-12T16:31:01.491Z,1.08
2022-09-12T16:34:04.258Z,0.50
2022-09-12T16:37:06.918Z,0.70
2022-09-12T16:40:10.129Z,0.82
2022-09-12T16:43:12.740Z,0.90
2022-09-12T16:46:16.167Z,0.70
2022-09-12T16:49:18.121Z,0.80
2022-09-12T16:52:21.010Z,0.50
2022-09-12T16:55:22.977Z,0.90
2022-09-12T16:58:25.650Z,0.77
2022-09-12T17:01:28.084Z,0.60
2022-09-12T17:04:30.562Z,1.00
2022-09-12T17:07:34.629Z,0.90
2022-09-12T17:10:42.075Z,1.00
2022-09-12T17:14:10.714Z,0.90
2022-09-12T17:17:13.964Z,0.70
2022-09-12T17:20:16.361Z,0.95
2022-09-12T17:23:19.325Z,0.80
2022-09-12T17:26:21.657Z,0.73
2022-09-12T17:29:30.577Z,0.90
2022-09-12T17:32:33.890Z,1.10
2022-09-12T17:35:37.793Z,0.70
2022-09-12T17:38:40.405Z,0.88
2022-09-12T17:41:43.323Z,1.13
2022-09-12T17:44:45.841Z,1.05
2022-09-12T17:47:48.757Z,0.90
2022-09-12T17:50:51.046Z,0.70
2022-09-12T17:53:59.248Z,0.77
2022-09-12T17:57:01.440Z,0.77
2022-09-12T18:00:05.141Z,0.90
2022-09-12T18:03:14.732Z,0.85
2022-09-12T18:06:17.228Z,1.10
2022-09-12T18:09:22.769Z,1.20
2022-09-12T18:12:25.501Z,1.10
2022-09-12T18:15:27.448Z,1.35
2022-09-12T18:18:30.059Z,1.13
2022-09-12T18:21:32.331Z,1.25
2022-09-12T18:24:34.977Z,1.27
2022-09-12T18:27:37.236Z,1.25
2022-09-12T18:30:41.415Z,1.30
2022-09-12T18:33:45.009Z,1.20
2022-09-12T18:36:50.258Z,1.23
2022-09-12T18:39:52.301Z,1.38
2022-09-12T18:42:54.357Z,1.38
2022-09-12T18:45:56.947Z,1.00
2022-09-12T18:49:00.109Z,1.20
2022-09-12T18:52:03.046Z,1.25
2022-09-12T18:55:05.566Z,1.08
2022-09-12T18:58:07.887Z,0.90
2022-09-12T19:01:15.697Z,0.93
2022-09-12T19:04:18.791Z,1.08
2022-09-12T19:07:21.138Z,1.13
2022-09-12T19:10:23.243Z,1.30
2022-09-12T19:13:25.672Z,1.20
2022-09-12T19:16:29.075Z,1.17
2022-09-12T19:19:31.630Z,1.00
2022-09-12T19:22:34.003Z,1.05
2022-09-12T19:25:36.497Z,0.90
2022-09-12T19:28:39.798Z,0.90
2022-09-12T19:31:43.075Z,0.98
2022-09-12T19:34:45.647Z,1.00
2022-09-12T19:37:47.814Z,1.48
2022-09-12T19:41:00.342Z,1.30
2022-09-12T19:44:04.473Z,0.93
2022-09-12T19:47:06.944Z,1.13
2022-09-12T19:50:11.377Z,1.67
2022-09-12T19:53:13.651Z,1.00
2022-09-12T19:56:16.475Z,1.48
2022-09-12T19:59:18.920Z,1.27
2022-09-12T20:02:20.876Z,1.33
2022-09-12T20:05:23.589Z,1.15
2022-09-12T20:08:25.634Z,1.23
2022-09-12T20:11:27.642Z,1.02
2022-09-12T20:14:30.829Z,1.10
2022-09-12T20:17:32.745Z,1.15
2022-09-12T20:20:35.153Z,1.02
2022-09-12T20:23:37.380Z,1.60
2022-09-12T20:26:40.482Z,1.17
2022-09-12T20:29:42.961Z,1.10
2022-09-12T20:32:45.189Z,1.20
2022-09-12T20:35:47.408Z,1.13
2022-09-12T20:39:01.493Z,1.20
2022-09-12T20:42:03.562Z,1.00
2022-09-12T20:45:06.648Z,0.98
2022-09-12T20:48:08.773Z,0.90
2022-09-12T20:51:10.690Z,1.55
2022-09-12T20:54:13.025Z,1.50
2022-09-12T20:57:14.928Z,1.00
2022-09-12T21:00:17.600Z,1.00
2022-09-12T21:03:22.074Z,1.27
2022-09-12T21:06:24.295Z,0.90
2022-09-12T21:09:26.534Z,0.90
2022-09-12T21:12:29.217Z,1.10
2022-09-12T21:15:32.108Z,1.25
2022-09-12T21:18:34.818Z,1.10
2022-09-12T21:21:36.994Z,1.23
2022-09-12T21:24:38.996Z,1.10
2022-09-12T21:27:40.846Z,1.25
2022-09-12T21:30:44.308Z,0.85
2022-09-12T21:33:46.566Z,1.02
2022-09-12T21:36:48.513Z,1.20
2022-09-12T21:39:50.650Z,1.20
2022-09-12T21:42:52.614Z,1.10
2022-09-12T21:45:59.318Z,1.27
2022-09-12T21:49:01.273Z,0.90
2022-09-12T21:52:04.175Z,1.10
2022-09-12T21:55:07.515Z,1.10
2022-09-12T21:58:11.053Z,0.88
2022-09-12T22:01:13.198Z,1.27
2022-09-12T22:04:15.157Z,1.20
2022-09-12T22:07:17.325Z,1.20
2022-09-12T22:10:19.289Z,0.85
2022-09-12T22:13:21.894Z,0.90
2022-09-12T22:16:24.263Z,0.82
2022-09-12T22:19:26.819Z,1.33
2022-09-12T22:22:47.327Z,1.42
2022-09-12T22:25:49.141Z,1.50
2022-09-12T22:28:51.716Z,1.20
2022-09-12T22:31:53.838Z,1.10
2022-09-12T22:34:55.813Z,0.98
2022-09-12T22:37:58.079Z,1.10
2022-09-12T22:41:03.737Z,1.77
2022-09-12T22:44:06.586Z,1.05
2022-09-12T22:47:08.455Z,1.50
2022-09-12T22:50:10.339Z,1.05
2022-09-12T22:53:12.203Z,1.30
2022-09-12T22:56:13.969Z,1.40
2022-09-12T22:59:16.505Z,1.23
2022-09-12T23:02:18.561Z,1.83
2022-09-12T23:05:20.563Z,1.00
2022-09-12T23:08:22.552Z,1.48
2022-09-12T23:11:24.664Z,1.10
2022-09-12T23:14:27.045Z,1.00
2022-09-12T23:17:28.795Z,1.10
2022-09-12T23:20:30.577Z,1.02
2022-09-12T23:23:33.302Z,1.20
2022-09-12T23:26:35.092Z,1.63
2022-09-12T23:29:36.976Z,1.00
2022-09-12T23:32:38.977Z,1.95
2022-09-12T23:35:40.848Z,1.48
2022-09-12T23:38:45.138Z,1.33
2022-09-12T23:41:47.086Z,1.83
2022-09-12T23:44:48.999Z,1.17
2022-09-12T23:47:51.143Z,1.50
2022-09-12T23:50:53.604Z,1.20
2022-09-12T23:53:56.113Z,1.30
2022-09-12T23:56:57.838Z,1.48
2022-09-12T23:59:59.553Z,1.45
